Time;durP1;ratioP1;P1;durP2;ratioP2;P2;SDS_P1;SDS_P2;PMS_P1;PMS_P2;Temp;Humidity;BMP_temperature;BMP_pressure;BME280_temperature;BME280_humidity;BME280_pressure;Samples;Min_cycle;Max_cycle;Signal;HPM_P1;HPM_P2
2020/12/31 00:00:39;;;;;;;4.68;2.80;;;;;;;;;;5043508;28;20448;-89
2020/12/31 00:03:05;;;;;;;35.17;20.83;;;;;;;;;;5045180;28;20221;-92
2020/12/31 00:05:31;;;;;;;16.98;8.25;;;;;;;;;;5034135;28;20464;-88
2020/12/31 00:07:57;;;;;;;6.82;4.88;;;;;;;;;;5045846;28;20190;-91
2020/12/31 00:10:23;;;;;;;32.65;16.52;;;;;;;;;;5036919;28;20302;-90
2020/12/31 00:12:49;;;;;;;12.00;5.60;;;;;;;;;;5041999;28;20178;-90
2020/12/31 00:15:15;;;;;;;23.90;14.15;;;;;;;;;;5043144;28;20535;-92
2020/12/31 00:17:41;;;;;;;33.88;16.33;;;;;;;;;;5045131;28;20240;-89
2020/12/31 00:20:09;;;;;;;43.47;20.05;;;;;;;;;;5081732;28;20182;-89
2020/12/31 00:22:35;;;;;;;13.82;6.65;;;;;;;;;;5078042;28;20181;-89
2020/12/31 00:25:01;;;;;;;35.67;19.38;;;;;;;;;;5040139;28;20209;-89
2020/12/31 00:27:28;;;;;;;38.53;21.73;;;;;;;;;;5041519;28;20186;-91
2020/12/31 00:29:54;;;;;;;15.93;9.93;;;;;;;;;;5033987;28;20466;-91
2020/12/31 00:32:20;;;;;;;31.17;18.70;;;;;;;;;;5030082;28;20198;-89
2020/12/31 00:34:46;;;;;;;37.47;22.53;;;;;;;;;;5041409;28;20451;-90
2020/12/31 00:37:12;;;;;;;17.43;10.27;;;;;;;;;;5068393;28;20452;-88
2020/12/31 00:39:38;;;;;;;42.30;24.05;;;;;;;;;;5038370;28;20442;-91
2020/12/31 00:42:04;;;;;;;54.72;33.22;;;;;;;;;;5041665;28;20182;-89
2020/12/31 00:44:30;;;;;;;44.47;23.60;;;;;;;;;;5044246;28;20272;-89
2020/12/31 00:46:56;;;;;;;65.13;35.33;;;;;;;;;;5041095;28;20239;-86
2020/12/31 00:49:21;;;;;;;160.52;82.07;;;;;;;;;;5041148;28;20194;-90
2020/12/31 00:51:48;;;;;;;29.23;18.20;;;;;;;;;;5038981;28;20186;-88
2020/12/31 00:54:14;;;;;;;137.07;69.90;;;;;;;;;;5040260;28;20440;-88
2020/12/31 00:56:40;;;;;;;67.67;33.07;;;;;;;;;;5030074;28;20193;-89
2020/12/31 00:59:06;;;;;;;77.35;38.67;;;;;;;;;;5041410;28;20448;-88
2020/12/31 01:01:32;;;;;;;42.53;25.17;;;;;;;;;;5041111;28;20170;-91
2020/12/31 01:03:58;;;;;;;28.55;13.18;;;;;;;;;;5039933;28;20182;-88
2020/12/31 01:06:24;;;;;;;21.30;11.70;;;;;;;;;;5056337;28;20205;-88
2020/12/31 01:08:50;;;;;;;51.42;28.63;;;;;;;;;;5042022;28;20379;-91
2020/12/31 01:11:17;;;;;;;30.80;16.40;;;;;;;;;;5060539;28;20221;-85
2020/12/31 01:13:43;;;;;;;67.47;34.35;;;;;;;;;;5040768;28;20193;-87
2020/12/31 01:16:10;;;;;;;63.38;35.33;;;;;;;;;;5073129;28;20224;-87
2020/12/31 01:18:39;;;;;;;31.67;17.15;;;;;;;;;;5042179;28;20186;-90
2020/12/31 01:21:11;;;;;;;14.27;9.10;;;;;;;;;;5076844;28;20220;-88
2020/12/31 01:23:37;;;;;;;29.83;24.33;;;;;;;;;;5042426;28;20201;-88
2020/12/31 01:26:03;;;;;;;31.40;26.67;;;;;;;;;;5041772;28;20188;-87
2020/12/31 01:28:29;;;;;;;8.00;6.30;;;;;;;;;;5039122;28;20178;-89
2020/12/31 01:30:55;;;;;;;22.10;14.83;;;;;;;;;;5037918;28;20785;-90
2020/12/31 01:33:21;;;;;;;11.07;8.65;;;;;;;;;;5032183;28;20447;-89
2020/12/31 01:35:47;;;;;;;3.87;2.97;;;;;;;;;;5042390;28;20210;-90
2020/12/31 01:38:13;;;;;;;2.63;2.42;;;;;;;;;;5044213;28;20444;-89
2020/12/31 01:40:45;;;;;;;3.33;2.40;;;;;;;;;;5072813;28;20170;-91
2020/12/31 01:43:11;;;;;;;1.83;1.70;;;;;;;;;;5033944;28;20973;-90
2020/12/31 01:45:37;;;;;;;3.40;3.10;;;;;;;;;;5037292;28;20186;-90
2020/12/31 01:48:03;;;;;;;1.87;1.77;;;;;;;;;;5030452;28;20484;-90
2020/12/31 01:50:29;;;;;;;28.03;21.07;;;;;;;;;;5060534;28;20867;-89
2020/12/31 01:52:55;;;;;;;4.17;2.80;;;;;;;;;;5062612;28;20432;-90
2020/12/31 01:55:21;;;;;;;3.35;3.05;;;;;;;;;;5037598;28;20523;-91
2020/12/31 01:57:48;;;;;;;4.10;2.88;;;;;;;;;;5036736;28;20198;-91
2020/12/31 02:00:14;;;;;;;8.90;4.63;;;;;;;;;;5030127;28;20190;-90
2020/12/31 02:02:40;;;;;;;15.13;9.88;;;;;;;;;;5040966;28;20213;-89
2020/12/31 02:05:06;;;;;;;5.40;2.80;;;;;;;;;;5076396;28;20182;-90
2020/12/31 02:07:32;;;;;;;6.50;5.13;;;;;;;;;;5038214;28;20417;-91
2020/12/31 02:09:58;;;;;;;13.07;7.97;;;;;;;;;;5067918;28;20549;-91
2020/12/31 02:12:24;;;;;;;8.52;3.78;;;;;;;;;;5036924;28;20199;-91
2020/12/31 02:14:50;;;;;;;43.42;21.33;;;;;;;;;;5040640;28;20210;-85
2020/12/31 02:17:17;;;;;;;36.38;20.30;;;;;;;;;;5076325;28;20627;-90
2020/12/31 02:19:43;;;;;;;14.45;7.18;;;;;;;;;;5039925;28;20181;-91
2020/12/31 02:22:11;;;;;;;11.30;4.60;;;;;;;;;;5039140;28;20193;-90
2020/12/31 02:24:36;;;;;;;14.05;6.35;;;;;;;;;;5043201;28;20440;-92
2020/12/31 02:27:03;;;;;;;3.50;1.88;;;;;;;;;;5042763;28;20194;-89
2020/12/31 02:29:29;;;;;;;10.38;6.25;;;;;;;;;;5027502;28;20603;-91
2020/12/31 02:31:55;;;;;;;17.93;10.33;;;;;;;;;;5029595;28;20182;-90
2020/12/31 02:34:24;;;;;;;10.07;5.05;;;;;;;;;;5036654;28;20465;-90
2020/12/31 02:36:50;;;;;;;7.00;5.18;;;;;;;;;;5036829;28;20186;-90
2020/12/31 02:39:16;;;;;;;3.33;2.33;;;;;;;;;;5037154;28;20211;-90
2020/12/31 02:41:42;;;;;;;2.87;2.40;;;;;;;;;;5028079;28;20189;-90
2020/12/31 02:44:09;;;;;;;2.72;1.80;;;;;;;;;;5040706;28;20420;-88
2020/12/31 02:46:35;;;;;;;7.32;2.25;;;;;;;;;;5040308;28;20237;-90
2020/12/31 02:49:01;;;;;;;1.92;1.40;;;;;;;;;;5035505;28;20178;-90
2020/12/31 02:51:28;;;;;;;2.65;1.20;;;;;;;;;;5036242;28;20343;-90
2020/12/31 02:53:54;;;;;;;2.10;2.00;;;;;;;;;;5039614;28;20635;-90
2020/12/31 02:56:21;;;;;;;4.68;1.30;;;;;;;;;;5037692;28;20240;-90
2020/12/31 02:58:48;;;;;;;2.25;1.65;;;;;;;;;;5038041;28;20182;-90
2020/12/31 03:01:15;;;;;;;5.38;1.30;;;;;;;;;;5071442;28;20189;-90
2020/12/31 03:03:41;;;;;;;1.42;1.27;;;;;;;;;;5041200;28;20178;-89
2020/12/31 03:06:07;;;;;;;2.05;1.45;;;;;;;;;;5070911;28;20202;-90
2020/12/31 03:08:33;;;;;;;1.20;1.10;;;;;;;;;;5041571;28;20193;-89
2020/12/31 03:11:00;;;;;;;2.25;1.25;;;;;;;;;;5026458;28;20304;-87
2020/12/31 03:13:26;;;;;;;3.25;1.80;;;;;;;;;;5070464;28;20181;-90
2020/12/31 03:15:55;;;;;;;4.45;1.27;;;;;;;;;;5035173;28;20278;-91
2020/12/31 03:18:22;;;;;;;1.73;1.23;;;;;;;;;;5036028;28;20205;-90
2020/12/31 03:20:48;;;;;;;1.40;1.30;;;;;;;;;;5039182;28;20656;-91
2020/12/31 03:23:14;;;;;;;2.25;1.55;;;;;;;;;;5059461;28;20182;-90
2020/12/31 03:25:41;;;;;;;3.10;1.38;;;;;;;;;;5032919;28;20212;-91
2020/12/31 03:28:07;;;;;;;4.05;1.40;;;;;;;;;;5048113;28;20612;-88
2020/12/31 03:30:33;;;;;;;2.53;1.65;;;;;;;;;;5038728;28;20197;-90
2020/12/31 03:32:59;;;;;;;2.35;1.30;;;;;;;;;;5041689;28;20207;-91
2020/12/31 03:35:26;;;;;;;1.85;1.50;;;;;;;;;;5026501;28;20209;-90
2020/12/31 03:37:52;;;;;;;1.45;1.23;;;;;;;;;;5037759;28;20197;-91
2020/12/31 03:40:18;;;;;;;2.40;1.23;;;;;;;;;;5053794;28;20212;-89
2020/12/31 03:42:44;;;;;;;2.47;1.90;;;;;;;;;;5041311;28;20191;-91
2020/12/31 03:45:10;;;;;;;2.63;1.67;;;;;;;;;;5041888;28;20581;-89
2020/12/31 03:47:36;;;;;;;5.40;1.80;;;;;;;;;;5041886;28;20440;-90
2020/12/31 03:50:03;;;;;;;2.17;1.65;;;;;;;;;;5033488;28;20185;-89
2020/12/31 03:52:29;;;;;;;1.92;1.45;;;;;;;;;;5063519;28;20213;-91
2020/12/31 03:54:55;;;;;;;3.50;1.80;;;;;;;;;;5035270;28;20195;-90
2020/12/31 03:57:21;;;;;;;3.53;1.83;;;;;;;;;;5036511;28;20224;-90
2020/12/31 03:59:47;;;;;;;2.25;1.50;;;;;;;;;;5040068;28;20269;-90
2020/12/31 04:02:13;;;;;;;3.80;2.10;;;;;;;;;;5040290;28;20254;-89
2020/12/31 04:04:39;;;;;;;2.23;1.50;;;;;;;;;;5073466;28;20420;-90
2020/12/31 04:07:05;;;;;;;3.17;1.98;;;;;;;;;;5037057;28;20464;-90
2020/12/31 04:09:31;;;;;;;1.83;1.40;;;;;;;;;;5038790;28;20294;-91
2020/12/31 04:11:58;;;;;;;2.10;1.77;;;;;;;;;;5042622;28;20194;-90
2020/12/31 04:14:24;;;;;;;2.78;1.70;;;;;;;;;;5030682;28;20212;-91
2020/12/31 04:16:50;;;;;;;1.65;1.55;;;;;;;;;;5042385;28;20563;-90
2020/12/31 04:19:16;;;;;;;4.47;1.70;;;;;;;;;;5043393;28;20197;-90
2020/12/31 04:21:42;;;;;;;2.13;1.88;;;;;;;;;;5041301;28;20231;-90
2020/12/31 04:24:08;;;;;;;2.72;2.20;;;;;;;;;;5056734;28;20594;-90
2020/12/31 04:26:34;;;;;;;5.03;2.07;;;;;;;;;;5043949;28;20193;-89
2020/12/31 04:29:00;;;;;;;4.20;1.85;;;;;;;;;;5028718;28;20670;-90
2020/12/31 04:31:26;;;;;;;4.88;2.15;;;;;;;;;;5041379;28;20173;-89
2020/12/31 04:33:52;;;;;;;2.35;1.80;;;;;;;;;;5040176;28;20193;-89
2020/12/31 04:36:18;;;;;;;4.87;2.50;;;;;;;;;;5044572;28;20273;-84
2020/12/31 04:38:44;;;;;;;2.38;1.90;;;;;;;;;;5043388;28;20437;-90
2020/12/31 04:41:12;;;;;;;3.90;2.05;;;;;;;;;;5077895;28;20203;-91
2020/12/31 04:43:38;;;;;;;5.07;2.75;;;;;;;;;;5063716;28;20178;-90
2020/12/31 04:46:08;;;;;;;3.90;2.25;;;;;;;;;;5038878;28;20198;-91
2020/12/31 04:48:41;;;;;;;8.05;1.95;;;;;;;;;;5037833;28;20194;-89
2020/12/31 04:51:08;;;;;;;3.30;1.80;;;;;;;;;;5040437;28;20281;-91
2020/12/31 04:53:34;;;;;;;5.78;2.30;;;;;;;;;;5043014;28;20189;-91
2020/12/31 04:56:03;;;;;;;3.55;1.60;;;;;;;;;;5040656;28;20221;-88
2020/12/31 04:58:30;;;;;;;3.67;1.77;;;;;;;;;;5033713;28;20316;-90
2020/12/31 05:00:56;;;;;;;2.63;2.17;;;;;;;;;;5038769;28;20229;-90
2020/12/31 05:03:22;;;;;;;3.08;1.98;;;;;;;;;;5056758;28;20198;-91
2020/12/31 05:05:50;;;;;;;3.90;1.77;;;;;;;;;;5043158;28;20605;-90
2020/12/31 05:08:17;;;;;;;3.90;1.80;;;;;;;;;;5077386;28;20200;-91
2020/12/31 05:10:52;;;;;;;2.78;2.17;;;;;;;;;;5060215;28;20874;-86
2020/12/31 05:13:18;;;;;;;4.65;1.85;;;;;;;;;;5046151;28;20322;-88
2020/12/31 05:15:44;;;;;;;6.30;1.90;;;;;;;;;;5047252;28;20705;-90
2020/12/31 05:18:23;;;;;;;4.40;2.08;;;;;;;;;;5067134;28;20193;-90
2020/12/31 05:20:50;;;;;;;4.68;1.88;;;;;;;;;;5062459;28;20240;-89
2020/12/31 05:23:17;;;;;;;2.70;1.98;;;;;;;;;;5063317;28;20181;-88
2020/12/31 05:25:44;;;;;;;2.83;2.47;;;;;;;;;;5043686;28;20180;-89
2020/12/31 05:28:25;;;;;;;6.00;1.70;;;;;;;;;;5055234;28;20673;-90
2020/12/31 05:30:51;;;;;;;4.95;1.90;;;;;;;;;;5058834;28;20193;-89
2020/12/31 05:33:28;;;;;;;3.35;1.90;;;;;;;;;;5060773;28;20193;-91
2020/12/31 05:36:11;;;;;;;2.10;1.75;;;;;;;;;;5064881;28;20197;-90
2020/12/31 05:38:37;;;;;;;2.85;1.70;;;;;;;;;;5048778;28;20704;-91
2020/12/31 05:41:03;;;;;;;3.10;1.80;;;;;;;;;;5076323;28;20185;-88
2020/12/31 05:43:29;;;;;;;4.10;1.70;;;;;;;;;;5042930;28;20192;-91
2020/12/31 05:46:05;;;;;;;3.10;1.95;;;;;;;;;;5059821;28;20185;-90
2020/12/31 05:48:31;;;;;;;4.30;2.38;;;;;;;;;;5046973;28;20200;-89
2020/12/31 05:50:57;;;;;;;2.30;1.45;;;;;;;;;;5059988;28;20194;-87
2020/12/31 05:53:24;;;;;;;1.48;1.10;;;;;;;;;;5079205;28;20189;-88
2020/12/31 05:55:56;;;;;;;2.00;1.80;;;;;;;;;;5042882;28;20201;-90
2020/12/31 05:58:26;;;;;;;2.35;1.25;;;;;;;;;;5059261;28;20267;-88
2020/12/31 06:01:00;;;;;;;2.72;1.40;;;;;;;;;;5044657;28;20181;-88
2020/12/31 06:03:35;;;;;;;4.68;1.70;;;;;;;;;;5046335;28;20280;-87
2020/12/31 06:06:08;;;;;;;1.30;1.17;;;;;;;;;;5062492;28;20658;-86
2020/12/31 06:08:34;;;;;;;3.25;1.35;;;;;;;;;;5066067;28;20208;-88
2020/12/31 06:11:03;;;;;;;2.30;1.23;;;;;;;;;;5060106;28;20232;-89
2020/12/31 06:13:39;;;;;;;2.92;1.33;;;;;;;;;;5067452;28;20216;-88
2020/12/31 06:16:05;;;;;;;4.32;1.20;;;;;;;;;;5040453;28;20296;-88
2020/12/31 06:18:33;;;;;;;3.72;1.30;;;;;;;;;;5056062;28;20199;-89
2020/12/31 06:21:01;;;;;;;2.50;1.40;;;;;;;;;;5060047;28;20173;-89
2020/12/31 06:23:37;;;;;;;1.80;1.20;;;;;;;;;;5079783;28;20652;-89
2020/12/31 06:26:13;;;;;;;2.20;1.25;;;;;;;;;;5062876;28;20204;-87
2020/12/31 06:28:46;;;;;;;3.42;2.42;;;;;;;;;;5060344;28;20197;-90
2020/12/31 06:31:12;;;;;;;7.50;2.67;;;;;;;;;;5046135;28;20212;-89
2020/12/31 06:33:42;;;;;;;4.65;1.77;;;;;;;;;;5074958;28;20207;-90
2020/12/31 06:36:09;;;;;;;2.65;1.50;;;;;;;;;;5059436;28;20208;-89
2020/12/31 06:38:35;;;;;;;4.07;1.88;;;;;;;;;;5079457;28;20189;-89
2020/12/31 06:41:01;;;;;;;1.38;1.10;;;;;;;;;;5063816;28;20706;-89
2020/12/31 06:43:45;;;;;;;1.80;1.10;;;;;;;;;;5075014;28;20209;-89
2020/12/31 06:46:18;;;;;;;3.22;1.20;;;;;;;;;;5054544;28;20181;-88
2020/12/31 06:48:44;;;;;;;2.70;1.20;;;;;;;;;;5053810;28;20193;-89
2020/12/31 06:51:13;;;;;;;2.53;1.40;;;;;;;;;;5074020;28;20214;-90
2020/12/31 06:53:40;;;;;;;1.90;0.98;;;;;;;;;;5078497;28;20192;-89
2020/12/31 06:56:13;;;;;;;4.30;1.40;;;;;;;;;;5061157;28;20197;-88
2020/12/31 06:58:39;;;;;;;1.63;1.40;;;;;;;;;;5059372;28;20260;-88
2020/12/31 07:01:30;;;;;;;1.10;1.00;;;;;;;;;;5074248;28;20252;-89
2020/12/31 07:03:57;;;;;;;1.83;1.40;;;;;;;;;;5058819;28;20181;-89
2020/12/31 07:06:23;;;;;;;1.90;1.00;;;;;;;;;;5076673;28;20223;-89
2020/12/31 07:09:15;;;;;;;3.53;1.63;;;;;;;;;;5047859;28;20191;-89
2020/12/31 07:11:41;;;;;;;2.10;1.90;;;;;;;;;;4966342;28;20203;-90
2020/12/31 07:14:16;;;;;;;1.83;1.50;;;;;;;;;;4978253;28;20200;-87
2020/12/31 07:16:48;;;;;;;1.75;1.40;;;;;;;;;;4981218;28;20255;-89
2020/12/31 07:19:14;;;;;;;1.60;1.50;;;;;;;;;;4959623;28;20188;-90
2020/12/31 07:21:40;;;;;;;1.30;1.20;;;;;;;;;;4980882;28;20257;-91
2020/12/31 07:24:22;;;;;;;1.35;1.25;;;;;;;;;;4964532;28;20704;-89
2020/12/31 07:26:55;;;;;;;1.50;1.40;;;;;;;;;;4980930;28;20242;-89
2020/12/31 07:29:25;;;;;;;1.45;1.35;;;;;;;;;;4991623;28;20204;-87
2020/12/31 07:31:51;;;;;;;1.50;1.40;;;;;;;;;;4980131;28;20172;-88
2020/12/31 07:34:23;;;;;;;1.23;1.13;;;;;;;;;;4979425;28;20255;-88
2020/12/31 07:36:56;;;;;;;1.30;1.10;;;;;;;;;;4980130;28;20823;-87
2020/12/31 07:39:23;;;;;;;1.10;1.10;;;;;;;;;;4979594;28;20183;-87
2020/12/31 07:41:48;;;;;;;1.80;1.70;;;;;;;;;;4982519;28;20204;-85
2020/12/31 07:44:14;;;;;;;2.20;1.60;;;;;;;;;;4982040;28;20210;-84
2020/12/31 07:46:40;;;;;;;1.87;1.77;;;;;;;;;;4985728;28;20508;-86
2020/12/31 07:49:13;;;;;;;4.22;1.67;;;;;;;;;;5046548;28;20442;-86
2020/12/31 07:51:46;;;;;;;2.40;2.20;;;;;;;;;;5062004;28;20173;-86
2020/12/31 07:54:12;;;;;;;2.17;1.98;;;;;;;;;;5077985;28;20186;-87
2020/12/31 07:56:38;;;;;;;2.17;1.98;;;;;;;;;;5080650;28;20249;-87
2020/12/31 07:59:04;;;;;;;2.60;2.10;;;;;;;;;;5052646;28;20253;-86
2020/12/31 08:01:31;;;;;;;1.95;1.85;;;;;;;;;;5073187;28;20264;-83
2020/12/31 08:04:10;;;;;;;2.15;1.95;;;;;;;;;;5069601;28;20241;-87
2020/12/31 08:06:36;;;;;;;2.75;2.10;;;;;;;;;;5075206;28;20181;-85
2020/12/31 08:09:02;;;;;;;2.22;2.03;;;;;;;;;;5064234;28;20181;-83
2020/12/31 08:11:28;;;;;;;2.65;2.45;;;;;;;;;;5068040;28;20197;-87
2020/12/31 08:14:04;;;;;;;3.03;2.63;;;;;;;;;;5065753;28;20207;-86
2020/12/31 08:16:30;;;;;;;3.25;2.65;;;;;;;;;;5072631;28;20193;-87
2020/12/31 08:18:56;;;;;;;2.38;2.17;;;;;;;;;;5064793;28;20192;-86
2020/12/31 08:21:23;;;;;;;4.60;2.25;;;;;;;;;;5078468;28;20185;-81
2020/12/31 08:23:55;;;;;;;2.38;2.17;;;;;;;;;;5082052;28;20234;-86
2020/12/31 08:26:21;;;;;;;2.80;2.60;;;;;;;;;;5065393;28;20261;-85
2020/12/31 08:28:48;;;;;;;2.72;2.53;;;;;;;;;;5062514;28;20189;-86
2020/12/31 08:31:17;;;;;;;5.07;2.85;;;;;;;;;;5076511;28;20185;-87
2020/12/31 08:33:44;;;;;;;3.20;2.90;;;;;;;;;;5061653;28;20545;-86
2020/12/31 08:36:10;;;;;;;3.30;3.00;;;;;;;;;;5077191;28;20210;-87
2020/12/31 08:38:37;;;;;;;4.65;3.03;;;;;;;;;;5064810;28;20211;-87
2020/12/31 08:41:05;;;;;;;3.90;3.42;;;;;;;;;;5078590;28;20169;-85
2020/12/31 08:43:38;;;;;;;4.00;3.60;;;;;;;;;;5053548;28;20181;-86
2020/12/31 08:46:05;;;;;;;6.20;3.30;;;;;;;;;;5041484;28;20283;-86
2020/12/31 08:48:31;;;;;;;3.33;3.03;;;;;;;;;;5041316;28;20186;-85
2020/12/31 08:51:07;;;;;;;4.43;3.83;;;;;;;;;;5044127;28;20572;-86
2020/12/31 08:53:47;;;;;;;4.07;3.30;;;;;;;;;;5049731;28;20181;-85
2020/12/31 08:56:13;;;;;;;5.15;3.75;;;;;;;;;;5049608;28;20239;-86
2020/12/31 08:58:39;;;;;;;4.55;3.95;;;;;;;;;;5061385;28;20169;-85
2020/12/31 09:01:05;;;;;;;4.63;4.15;;;;;;;;;;5075816;28;20203;-86
2020/12/31 09:03:31;;;;;;;5.73;4.57;;;;;;;;;;5076125;28;20184;-86
2020/12/31 09:05:58;;;;;;;7.47;5.63;;;;;;;;;;5077765;28;20468;-85
2020/12/31 09:08:25;;;;;;;6.78;5.10;;;;;;;;;;5080031;28;20196;-86
2020/12/31 09:11:02;;;;;;;7.75;5.15;;;;;;;;;;5044114;28;20220;-87
2020/12/31 09:13:28;;;;;;;6.60;5.15;;;;;;;;;;5075882;28;20180;-86
2020/12/31 09:16:06;;;;;;;5.50;4.95;;;;;;;;;;5075575;28;20742;-86
2020/12/31 09:18:32;;;;;;;5.75;4.85;;;;;;;;;;5075840;28;20257;-86
2020/12/31 09:20:58;;;;;;;5.40;4.17;;;;;;;;;;5080487;28;20211;-87
2020/12/31 09:23:24;;;;;;;6.33;4.33;;;;;;;;;;5049096;28;20458;-86
2020/12/31 09:25:51;;;;;;;7.40;4.90;;;;;;;;;;5043393;28;20939;-86
2020/12/31 09:28:17;;;;;;;4.20;3.53;;;;;;;;;;5060026;28;20272;-88
2020/12/31 09:30:43;;;;;;;4.38;3.83;;;;;;;;;;5075946;28;20181;-84
2020/12/31 09:33:11;;;;;;;6.13;4.38;;;;;;;;;;5075712;28;20255;-86
2020/12/31 09:35:37;;;;;;;4.55;4.15;;;;;;;;;;5064008;28;20218;-87
2020/12/31 09:38:03;;;;;;;6.35;4.40;;;;;;;;;;5077212;28;20177;-86
2020/12/31 09:40:29;;;;;;;5.30;4.20;;;;;;;;;;5052501;28;20689;-86
2020/12/31 09:42:55;;;;;;;4.78;4.32;;;;;;;;;;5038836;28;20499;-86
2020/12/31 09:45:21;;;;;;;5.13;4.63;;;;;;;;;;5075732;28;20182;-87
2020/12/31 09:47:47;;;;;;;5.57;4.13;;;;;;;;;;5077629;28;20192;-88
2020/12/31 09:50:15;;;;;;;4.15;3.70;;;;;;;;;;5078340;28;20169;-84
2020/12/31 09:52:41;;;;;;;5.10;4.03;;;;;;;;;;5065640;28;20476;-87
2020/12/31 09:55:07;;;;;;;3.95;3.53;;;;;;;;;;5052824;28;20233;-87
2020/12/31 09:57:34;;;;;;;4.55;4.10;;;;;;;;;;5040134;28;20186;-88
2020/12/31 10:00:00;;;;;;;4.90;3.90;;;;;;;;;;5044390;28;20200;-86
2020/12/31 10:02:26;;;;;;;4.35;3.25;;;;;;;;;;5062453;28;20268;-87
2020/12/31 10:04:52;;;;;;;4.35;3.85;;;;;;;;;;5060887;28;20569;-85
2020/12/31 10:07:18;;;;;;;5.13;4.00;;;;;;;;;;5075272;28;20195;-87
2020/12/31 10:09:44;;;;;;;4.35;3.95;;;;;;;;;;5074937;28;20677;-87
2020/12/31 10:12:12;;;;;;;5.50;4.07;;;;;;;;;;5077723;28;20419;-86
2020/12/31 10:14:38;;;;;;;4.68;3.70;;;;;;;;;;5044888;28;20470;-86
2020/12/31 10:17:04;;;;;;;5.47;4.07;;;;;;;;;;5061547;28;20173;-86
2020/12/31 10:19:30;;;;;;;5.00;3.80;;;;;;;;;;5042301;28;20474;-87
2020/12/31 10:21:56;;;;;;;4.03;3.63;;;;;;;;;;5071951;28;20223;-86
2020/12/31 10:24:22;;;;;;;4.75;4.03;;;;;;;;;;5040652;28;20192;-86
2020/12/31 10:26:48;;;;;;;4.45;3.97;;;;;;;;;;5042855;28;20186;-86
2020/12/31 10:29:14;;;;;;;4.30;3.63;;;;;;;;;;5079053;28;20177;-86
2020/12/31 10:31:42;;;;;;;3.33;3.00;;;;;;;;;;5075845;28;20216;-85
2020/12/31 10:34:08;;;;;;;4.75;4.35;;;;;;;;;;5059024;28;20188;-89
2020/12/31 10:36:34;;;;;;;7.32;3.80;;;;;;;;;;5074841;28;20210;-86
2020/12/31 10:39:02;;;;;;;3.60;2.80;;;;;;;;;;5043116;28;20199;-86
2020/12/31 10:41:28;;;;;;;4.50;3.72;;;;;;;;;;5046706;28;20431;-84
2020/12/31 10:43:55;;;;;;;3.47;3.10;;;;;;;;;;5059634;28;20195;-85
2020/12/31 10:46:21;;;;;;;4.18;3.80;;;;;;;;;;5059480;28;20189;-85
2020/12/31 10:48:47;;;;;;;6.35;3.95;;;;;;;;;;5074262;28;20275;-85
2020/12/31 10:51:13;;;;;;;4.28;3.90;;;;;;;;;;5074388;28;20178;-86
2020/12/31 10:53:39;;;;;;;4.78;3.88;;;;;;;;;;5078219;28;20239;-85
2020/12/31 10:56:05;;;;;;;4.82;3.65;;;;;;;;;;5047322;28;20681;-85
2020/12/31 10:58:31;;;;;;;4.82;2.83;;;;;;;;;;5041595;28;20188;-85
2020/12/31 11:00:57;;;;;;;3.83;3.37;;;;;;;;;;5074333;28;20185;-86
2020/12/31 11:03:23;;;;;;;3.95;3.55;;;;;;;;;;5073275;28;20933;-85
2020/12/31 11:05:49;;;;;;;5.00;4.37;;;;;;;;;;5044736;28;20240;-84
2020/12/31 11:08:15;;;;;;;4.60;4.20;;;;;;;;;;5053897;28;20431;-85
2020/12/31 11:10:41;;;;;;;4.87;4.40;;;;;;;;;;5068666;28;20217;-83
2020/12/31 11:13:07;;;;;;;5.40;4.10;;;;;;;;;;5054295;28;20514;-84
2020/12/31 11:15:33;;;;;;;11.07;4.68;;;;;;;;;;5044902;28;20467;-84
2020/12/31 11:17:59;;;;;;;5.00;3.87;;;;;;;;;;5076540;28;20681;-84
2020/12/31 11:20:25;;;;;;;4.70;4.10;;;;;;;;;;5062086;28;20435;-84
2020/12/31 11:22:51;;;;;;;4.97;4.47;;;;;;;;;;5050662;28;20415;-87
2020/12/31 11:25:17;;;;;;;5.40;4.47;;;;;;;;;;5073635;28;20448;-84
2020/12/31 11:27:43;;;;;;;6.65;4.80;;;;;;;;;;5057173;28;20450;-85
2020/12/31 11:30:09;;;;;;;6.27;4.97;;;;;;;;;;5047503;28;20241;-84
2020/12/31 11:32:38;;;;;;;5.38;4.32;;;;;;;;;;5077531;28;20439;-84
2020/12/31 11:35:05;;;;;;;4.78;4.38;;;;;;;;;;5074665;28;20223;-84
2020/12/31 11:37:32;;;;;;;5.20;4.70;;;;;;;;;;5076717;28;20614;-85
2020/12/31 11:39:58;;;;;;;5.10;4.38;;;;;;;;;;5073168;28;20188;-85
2020/12/31 11:42:24;;;;;;;4.03;3.70;;;;;;;;;;5068283;28;20217;-84
2020/12/31 11:44:50;;;;;;;3.53;3.23;;;;;;;;;;5073168;28;20424;-84
2020/12/31 11:47:16;;;;;;;3.92;3.45;;;;;;;;;;5075900;28;20460;-85
2020/12/31 11:49:42;;;;;;;5.30;3.63;;;;;;;;;;5077010;28;20209;-86
2020/12/31 11:52:08;;;;;;;3.60;3.30;;;;;;;;;;5069712;28;20442;-85
2020/12/31 11:54:34;;;;;;;5.50;3.97;;;;;;;;;;5071891;28;20204;-86
2020/12/31 11:57:01;;;;;;;3.78;3.47;;;;;;;;;;5077814;28;20514;-84
2020/12/31 11:59:27;;;;;;;5.07;3.42;;;;;;;;;;5061703;28;20177;-85
2020/12/31 12:01:53;;;;;;;5.03;4.27;;;;;;;;;;5040940;28;20208;-85
2020/12/31 12:04:19;;;;;;;4.22;3.40;;;;;;;;;;5072498;28;20493;-84
2020/12/31 12:06:49;;;;;;;3.50;3.08;;;;;;;;;;5072059;28;20185;-83
2020/12/31 12:09:16;;;;;;;5.88;3.80;;;;;;;;;;5037726;28;21654;-83
2020/12/31 12:11:41;;;;;;;4.93;4.45;;;;;;;;;;5058771;28;20177;-85
2020/12/31 12:14:07;;;;;;;4.70;3.20;;;;;;;;;;5069401;28;20177;-84
2020/12/31 12:16:34;;;;;;;4.30;3.90;;;;;;;;;;5061374;28;20247;-84
2020/12/31 12:18:59;;;;;;;4.28;3.90;;;;;;;;;;5043234;28;20208;-83
2020/12/31 12:21:25;;;;;;;4.50;4.00;;;;;;;;;;5059732;28;20177;-83
2020/12/31 12:23:51;;;;;;;5.40;3.53;;;;;;;;;;5058586;28;20427;-84
2020/12/31 12:26:17;;;;;;;5.90;4.70;;;;;;;;;;5072935;28;20244;-86
2020/12/31 12:28:43;;;;;;;6.50;4.50;;;;;;;;;;5043387;28;20435;-85
2020/12/31 12:31:09;;;;;;;5.70;4.00;;;;;;;;;;5062251;28;20185;-84
2020/12/31 12:33:35;;;;;;;4.55;4.10;;;;;;;;;;5074024;28;20552;-85
2020/12/31 12:36:01;;;;;;;6.00;3.35;;;;;;;;;;5046885;28;20252;-85
2020/12/31 12:38:27;;;;;;;4.17;3.77;;;;;;;;;;5064171;28;20196;-83
2020/12/31 12:40:53;;;;;;;4.75;4.32;;;;;;;;;;5063369;28;20480;-88
2020/12/31 12:43:19;;;;;;;4.03;3.65;;;;;;;;;;5038326;28;20233;-87
2020/12/31 12:45:45;;;;;;;4.20;3.80;;;;;;;;;;5065260;28;20189;-85
2020/12/31 12:48:11;;;;;;;6.80;4.85;;;;;;;;;;5044188;28;20443;-85
2020/12/31 12:50:37;;;;;;;7.30;4.85;;;;;;;;;;5078174;28;20288;-85
2020/12/31 12:53:03;;;;;;;4.77;4.00;;;;;;;;;;5063229;28;20545;-85
2020/12/31 12:55:29;;;;;;;5.35;4.15;;;;;;;;;;5060946;28;20463;-84
2020/12/31 12:57:55;;;;;;;5.90;4.10;;;;;;;;;;5077935;28;20189;-86
2020/12/31 13:00:21;;;;;;;7.63;4.38;;;;;;;;;;5061203;28;20267;-84
2020/12/31 13:02:47;;;;;;;5.93;4.20;;;;;;;;;;5061579;28;20207;-88
2020/12/31 13:05:13;;;;;;;4.30;3.88;;;;;;;;;;5062296;28;20193;-85
2020/12/31 13:07:39;;;;;;;5.30;4.53;;;;;;;;;;5045412;28;20532;-85
2020/12/31 13:10:05;;;;;;;5.75;3.83;;;;;;;;;;5078519;28;20251;-84
2020/12/31 13:12:31;;;;;;;5.50;5.00;;;;;;;;;;5062428;28;20197;-86
2020/12/31 13:14:57;;;;;;;6.20;4.40;;;;;;;;;;5079672;28;20208;-85
2020/12/31 13:17:23;;;;;;;5.73;4.80;;;;;;;;;;5075960;28;20432;-85
2020/12/31 13:19:49;;;;;;;7.60;4.57;;;;;;;;;;5066510;28;20442;-86
2020/12/31 13:22:16;;;;;;;6.10;5.07;;;;;;;;;;5052726;28;20436;-86
2020/12/31 13:24:42;;;;;;;10.20;4.75;;;;;;;;;;5073616;28;20272;-84
2020/12/31 13:27:08;;;;;;;8.80;4.73;;;;;;;;;;5045638;28;20739;-85
2020/12/31 13:29:34;;;;;;;5.00;4.20;;;;;;;;;;5045560;28;20531;-86
2020/12/31 13:32:00;;;;;;;4.70;4.15;;;;;;;;;;5033914;28;20448;-86
2020/12/31 13:34:26;;;;;;;4.43;3.97;;;;;;;;;;5061778;28;20201;-86
2020/12/31 13:36:52;;;;;;;4.00;3.60;;;;;;;;;;5038712;28;20185;-87
2020/12/31 13:39:19;;;;;;;6.35;4.03;;;;;;;;;;5076130;28;20189;-87
2020/12/31 13:41:45;;;;;;;5.50;4.07;;;;;;;;;;5043708;28;20186;-89
2020/12/31 13:44:11;;;;;;;5.10;4.32;;;;;;;;;;5079285;28;20172;-85
2020/12/31 13:46:39;;;;;;;5.13;4.10;;;;;;;;;;5036133;28;20546;-84
2020/12/31 13:49:05;;;;;;;5.30;4.80;;;;;;;;;;5054914;28;20189;-86
2020/12/31 13:51:31;;;;;;;5.07;4.57;;;;;;;;;;5071257;28;20253;-85
2020/12/31 13:53:57;;;;;;;4.88;4.40;;;;;;;;;;5045543;28;20455;-85
2020/12/31 13:56:23;;;;;;;7.85;4.25;;;;;;;;;;5065775;28;20312;-85
2020/12/31 13:58:49;;;;;;;5.55;4.43;;;;;;;;;;5079064;28;20184;-85
2020/12/31 14:01:21;;;;;;;4.25;3.75;;;;;;;;;;5063886;28;20200;-86
2020/12/31 14:03:47;;;;;;;4.88;3.80;;;;;;;;;;5043644;28;20252;-85
2020/12/31 14:06:14;;;;;;;6.40;5.78;;;;;;;;;;5077261;28;20708;-84
2020/12/31 14:08:41;;;;;;;6.40;4.93;;;;;;;;;;5078431;28;20192;-84
2020/12/31 14:11:07;;;;;;;8.38;5.60;;;;;;;;;;5034092;28;20237;-85
2020/12/31 14:13:33;;;;;;;8.00;5.20;;;;;;;;;;5062042;28;20184;-84
2020/12/31 14:16:03;;;;;;;5.57;4.97;;;;;;;;;;5068114;28;20491;-84
2020/12/31 14:18:30;;;;;;;10.60;6.32;;;;;;;;;;5077437;28;20543;-85
2020/12/31 14:20:56;;;;;;;6.80;5.00;;;;;;;;;;5043979;28;20268;-85
2020/12/31 14:23:22;;;;;;;13.98;5.47;;;;;;;;;;5077705;28;20189;-86
2020/12/31 14:25:48;;;;;;;4.87;4.33;;;;;;;;;;5072920;28;20176;-86
2020/12/31 14:28:15;;;;;;;7.70;6.40;;;;;;;;;;5034234;28;20451;-86
2020/12/31 14:30:41;;;;;;;7.97;4.40;;;;;;;;;;5072182;28;20806;-87
2020/12/31 14:33:07;;;;;;;5.07;4.22;;;;;;;;;;5043644;28;20196;-85
2020/12/31 14:35:33;;;;;;;7.90;4.65;;;;;;;;;;5062033;28;20208;-86
2020/12/31 14:37:59;;;;;;;6.07;4.60;;;;;;;;;;5063428;28;20173;-86
2020/12/31 14:40:25;;;;;;;5.47;4.07;;;;;;;;;;5033507;28;20197;-88